Forestville, Maryland
Current Conditions -  °F | °C
As of 8:58 PM on Monday 22 Dec 2014 (Local Time) from KADW Reporting Station
Haze Haze  
Wind Chill: 29°   Ceiling: 400
Heat Index: 35°   Visibility: 5mi
Dew Point: 35°   Wind: 8mph
Humidity: 97%   Direction: 20°NNE
Pressure: 30.11"   Gusts: NA
Location:  38.84°N, 76.89°W
Report Text: KADW 230158Z AUTO 02007KT 5SM BR OVC004 02/02 A3011 RMK AO2 RAE0112DZB0112E0117 OVC V BKN SLPNO P0000 T00190015
Loading
Personal Weather Stations






























Interactive Weather Map New forecast layout! Learn more

10-Day Weather Forecast

Advertisements
Track Severe Weather on mobile